Latest Weather Observations for Arlington Reef

IDQ60801

Issued at 7:02 am EST Monday 27 April 2015 (issued every 30 minutes, with the page automatically refreshed every 10 minutes)

About weather observations | Map of weather stations | Latest weather observations for QLD | Other Formats
Station Details ID: 200879 Name: ARLINGTON REEF Lat: -16.72 Lon: 146.11 Height: 0.0 m
Data from the previous 72 hours. | See also: Recent months at Arlington Reef
Date/Time
EST
Temp
°C
App
Temp
°C
Dew
Point
Rel
Hum
%
Delta-T
°C
Wind Press
QNH
hPa
Press
MSL
hPa
Rain
since 9 am
mm
Dir
 
Spd
km/h
Gust
km/h
Spd
kts
Gust
kts
27/07:00am - - - - - S 30 37 16 20 1014.7 1014.7 -
27/06:30am - - - - - S 30 37 16 20 1014.6 1014.6 -
27/06:00am - - - - - S 28 33 15 18 1014.4 1014.4 -
27/05:30am - - - - - S 28 33 15 18 1013.9 1013.9 -
27/05:00am - - - - - SSE 28 32 15 17 1013.9 1013.9 -
27/04:30am - - - - - SSE 28 33 15 18 1013.8 1013.8 -
27/04:00am - - - - - S 24 30 13 16 1013.9 1013.9 -
27/03:30am - - - - - S 24 30 13 16 1014.0 1014.0 -
27/03:00am - - - - - S 24 28 13 15 1013.9 1013.9 -
27/02:30am - - - - - S 24 28 13 15 1013.9 1013.9 -
27/02:00am - - - - - S 22 24 12 13 1013.9 1013.9 -
27/01:30am - - - - - SSE 26 30 14 16 1014.0 1014.0 -
27/01:00am - - - - - SSE 24 28 13 15 1014.1 1014.1 -
27/12:30am - - - - - SSE 24 28 13 15 1014.4 1014.4 -
27/12:00am - - - - - SSE 22 26 12 14 1014.7 1014.7 -
 
Date/Time
EST
Temp
°C
App
Temp
°C
Dew
Point
Rel
Hum
%
Delta-T
°C
Wind Press
QNH
hPa
Press
MSL
hPa
Rain
since 9 am
mm
Dir
 
Spd
km/h
Gust
km/h
Spd
kts
Gust
kts
26/11:30pm - - - - - SSE 22 26 12 14 1015.0 1015.0 -
26/11:00pm - - - - - SSE 20 24 11 13 1015.0 1015.0 -
26/10:30pm - - - - - SSE 20 24 11 13 1015.2 1015.2 -
26/10:00pm - - - - - SE 20 24 11 13 1015.4 1015.4 -
26/09:30pm - - - - - SE 22 26 12 14 1015.2 1015.2 -
26/09:00pm - - - - - SSE 24 28 13 15 1015.2 1015.2 -
26/08:30pm - - - - - SSE 22 26 12 14 1015.0 1015.0 -
26/08:00pm - - - - - SSE 26 32 14 17 1014.7 1014.7 -
26/07:30pm - - - - - SSE 28 32 15 17 1014.4 1014.4 -
26/07:00pm - - - - - SSE 30 33 16 18 1014.0 1014.0 -
26/06:30pm - - - - - SE 30 35 16 19 1013.6 1013.6 -
26/06:00pm - - - - - SSE 32 39 17 21 1013.4 1013.4 -
26/05:30pm - - - - - SSE 32 35 17 19 1013.2 1013.2 -
26/05:00pm - - - - - SSE 33 39 18 21 1012.7 1012.7 -
26/04:30pm - - - - - SSE 32 39 17 21 1012.6 1012.6 -
26/04:00pm - - - - - SSE 35 41 19 22 1012.4 1012.4 -
26/03:30pm - - - - - SSE 33 43 18 23 1012.4 1012.4 -
26/03:00pm - - - - - SSE 35 43 19 23 1012.3 1012.3 -
26/02:30pm - - - - - SSE 35 43 19 23 1012.2 1012.2 -
26/02:00pm - - - - - SSE 37 43 20 23 1012.3 1012.3 -
26/01:30pm - - - - - SSE 39 46 21 25 1012.3 1012.3 -
26/01:00pm - - - - - SSE 39 48 21 26 1012.5 1012.5 -
26/12:30pm - - - - - SSE 37 46 20 25 1012.7 1012.7 -
26/12:00pm - - - - - SSE 39 46 21 25 1013.1 1013.1 -
26/11:30am - - - - - SSE 39 46 21 25 1013.4 1013.4 -
26/11:00am - - - - - SSE 37 44 20 24 1013.7 1013.7 -
26/10:30am - - - - - SSE 35 43 19 23 1014.1 1014.1 -
26/10:00am - - - - - S 28 33 15 18 1014.4 1014.4 -
26/09:30am - - - - - SSE 24 28 13 15 1014.4 1014.4 -
26/09:00am - - - - - SSE 24 30 13 16 1014.1 1014.1 -
26/08:30am - - - - - SSE 19 20 10 11 1013.9 1013.9 -
26/08:00am - - - - - SSE 17 20 9 11 1013.6 1013.6 -
26/07:30am - - - - - SSE 15 19 8 10 1013.5 1013.5 -
26/07:00am - - - - - SSE 13 17 7 9 1013.3 1013.3 -
26/06:30am - - - - - SSE 9 13 5 7 1012.9 1012.9 -
26/06:00am - - - - - SSE 11 13 6 7 1012.4 1012.4 -
26/05:30am - - - - - S 7 13 4 7 1012.2 1012.2 -
26/05:00am - - - - - S 6 9 3 5 1011.8 1011.8 -
26/04:30am - - - - - SW 6 7 3 4 1011.4 1011.4 -
26/04:00am - - - - - WSW 7 9 4 5 1011.1 1011.1 -
26/03:30am - - - - - WSW 7 11 4 6 1011.0 1011.0 -
26/03:00am - - - - - WSW 7 9 4 5 1011.0 1011.0 -
26/02:30am - - - - - W 6 9 3 5 1011.1 1011.1 -
26/02:00am - - - - - W 6 9 3 5 1011.2 1011.2 -
26/01:30am - - - - - W 4 6 2 3 1011.4 1011.4 -
26/01:00am - - - - - WNW 4 7 2 4 1011.8 1011.8 -
26/12:30am - - - - - NW 4 6 2 3 1012.2 1012.2 -
26/12:00am - - - - - NW 2 6 1 3 1012.6 1012.6 -
 
Date/Time
EST
Temp
°C
App
Temp
°C
Dew
Point
Rel
Hum
%
Delta-T
°C
Wind Press
QNH
hPa
Press
MSL
hPa
Rain
since 9 am
mm
Dir
 
Spd
km/h
Gust
km/h
Spd
kts
Gust
kts
25/11:30pm - - - - - WNW 4 6 2 3 1012.8 1012.8 -
25/11:00pm - - - - - N 2 6 1 3 1012.8 1012.8 -
25/10:30pm - - - - - CALM 0 0 0 0 1013.0 1013.0 -
25/10:00pm - - - - - NE 2 6 1 3 1013.0 1013.0 -
25/09:30pm - - - - - NE 4 6 2 3 1013.1 1013.1 -
25/09:00pm - - - - - ENE 6 7 3 4 1013.1 1013.1 -
25/08:30pm - - - - - ENE 7 9 4 5 1012.9 1012.9 -
25/08:00pm - - - - - ENE 6 9 3 5 1012.7 1012.7 -
25/07:30pm - - - - - E 6 7 3 4 1012.4 1012.4 -
25/07:00pm - - - - - E 7 9 4 5 1011.9 1011.9 -
25/06:30pm - - - - - ENE 7 9 4 5 1011.5 1011.5 -
25/06:00pm - - - - - E 7 11 4 6 1011.2 1011.2 -
25/05:30pm - - - - - E 9 13 5 7 1011.1 1011.1 -
25/05:00pm - - - - - ENE 9 11 5 6 1010.9 1010.9 -
25/04:30pm - - - - - ENE 7 11 4 6 1010.6 1010.6 -
25/04:00pm - - - - - ENE 6 9 3 5 1010.4 1010.4 -
25/03:30pm - - - - - ENE 6 9 3 5 1010.1 1010.1 -
25/03:00pm - - - - - SE 6 9 3 5 1010.0 1010.0 -
25/02:30pm - - - - - SE 4 7 2 4 1010.1 1010.1 -
25/02:00pm - - - - - SE 4 7 2 4 1010.3 1010.3 -
25/01:30pm - - - - - CALM 0 0 0 0 1010.6 1010.6 -
25/01:00pm - - - - - ENE 2 2 1 1 1011.0 1011.0 -
25/12:30pm - - - - - SW 2 4 1 2 1011.2 1011.2 -
25/12:00pm - - - - - CALM 0 4 0 2 1011.5 1011.5 -
25/11:30am - - - - - SSE 4 7 2 4 1011.9 1011.9 -
25/11:00am - - - - - ESE 6 9 3 5 1012.3 1012.3 -
25/10:30am - - - - - ESE 4 7 2 4 1012.4 1012.4 -
25/10:00am - - - - - E 6 9 3 5 1012.6 1012.6 -
25/09:30am - - - - - NE 2 6 1 3 1012.5 1012.5 -
25/09:00am - - - - - E 4 6 2 3 1012.2 1012.2 -
25/08:30am - - - - - CALM 0 0 0 0 1012.1 1012.1 -
25/08:00am - - - - - SE 2 6 1 3 1011.9 1011.9 -
25/07:30am - - - - - SSE 4 6 2 3 1011.6 1011.6 -
25/07:00am - - - - - S 2 4 1 2 1011.3 1011.3 -
25/06:30am - - - - - ENE 2 6 1 3 1011.1 1011.1 -
25/06:00am - - - - - ENE 4 6 2 3 1010.9 1010.9 -
25/05:30am - - - - - NE 2 6 1 3 1010.5 1010.5 -
25/05:00am - - - - - NE 2 6 1 3 1010.2 1010.2 -
25/04:30am - - - - - NE 2 7 1 4 1010.1 1010.1 -
25/04:00am - - - - - CALM 0 0 0 0 1009.9 1009.9 -
25/03:30am - - - - - NE 2 6 1 3 1009.7 1009.7 -
25/03:00am - - - - - NNE 2 6 1 3 1009.7 1009.7 -
25/02:30am - - - - - NE 2 7 1 4 1009.8 1009.8 -
25/02:00am - - - - - NE 2 6 1 3 1009.9 1009.9 -
25/01:30am - - - - - ENE 2 4 1 2 1010.1 1010.1 -
25/01:00am - - - - - CALM 0 0 0 0 1010.4 1010.4 -
25/12:30am - - - - - CALM 0 0 0 0 1010.7 1010.7 -
25/12:00am - - - - - E 2 6 1 3 1010.8 1010.8 -
 
Date/Time
EST
Temp
°C
App
Temp
°C
Dew
Point
Rel
Hum
%
Delta-T
°C
Wind Press
QNH
hPa
Press
MSL
hPa
Rain
since 9 am
mm
Dir
 
Spd
km/h
Gust
km/h
Spd
kts
Gust
kts
24/11:30pm - - - - - CALM 0 0 0 0 1010.9 1010.9 -
24/11:00pm - - - - - CALM 0 4 0 2 1011.1 1011.1 -
24/10:30pm - - - - - CALM 0 0 0 0 1011.2 1011.2 -
24/10:00pm - - - - - ENE 4 6 2 3 1011.2 1011.2 -
24/09:30pm - - - - - NE 6 7 3 4 1011.4 1011.4 -
24/09:00pm - - - - - NE 7 9 4 5 1011.3 1011.3 -
24/08:30pm - - - - - ENE 6 9 3 5 1011.1 1011.1 -
24/08:00pm - - - - - NNE 6 9 3 5 1010.9 1010.9 -
24/07:30pm - - - - - NE 7 11 4 6 1010.4 1010.4 -
24/07:00pm - - - - - NE 4 6 2 3 1010.1 1010.1 -
24/06:30pm - - - - - ENE 7 9 4 5 1009.8 1009.8 -
24/06:00pm - - - - - NE 6 9 3 5 1009.6 1009.6 -
24/05:30pm - - - - - ENE 7 9 4 5 1009.4 1009.4 -
24/05:00pm - - - - - ENE 7 11 4 6 1009.2 1009.2 -
24/04:30pm - - - - - NE 11 15 6 8 1008.9 1008.9 -
24/04:00pm - - - - - ENE 9 13 5 7 1008.7 1008.7 -
24/03:30pm - - - - - ENE 11 13 6 7 1008.8 1008.8 -
24/03:00pm - - - - - ENE 9 13 5 7 1009.0 1009.0 -
24/02:30pm - - - - - NE 7 11 4 6 1009.4 1009.4 -
24/02:00pm - - - - - ESE 6 7 3 4 1009.5 1009.5 -
24/01:30pm - - - - - SE 7 9 4 5 1009.9 1009.9 -
24/01:00pm - - - - - SSE 7 9 4 5 1010.1 1010.1 -
24/12:30pm - - - - - SE 6 11 3 6 1010.7 1010.7 -
24/12:00pm - - - - - SSE 4 7 2 4 1011.1 1011.1 -
24/11:30am - - - - - S 2 6 1 3 1011.6 1011.6 -
24/11:00am - - - - - ESE 4 6 2 3 1012.0 1012.0 -
24/10:30am - - - - - S 2 6 1 3 1012.4 1012.4 -
24/10:00am - - - - - SE 7 9 4 5 1012.5 1012.5 -
24/09:30am - - - - - SE 6 9 3 5 1012.3 1012.3 -
24/09:00am - - - - - SSE 7 9 4 5 1012.1 1012.1 -
24/08:30am - - - - - SSE 9 11 5 6 1011.7 1011.7 -
24/08:00am - - - - - ESE 9 13 5 7 1011.5 1011.5 -
24/07:30am - - - - - SE 7 11 4 6 1011.5 1011.5 -

Other Formats:

Comma delimited format used in spreadsheet applications
http://www.bom.gov.au/fwo/IDQ60801/IDQ60801.94284.axf

JavaScript Object Notation format (JSON) in row-major order
http://www.bom.gov.au/fwo/IDQ60801/IDQ60801.94284.json